sensor_id;sensor_type;location;lat;lon;timestamp;pressure;altitude;pressure_sealevel;temperature;humidity
64115;BME280;62188;35.640;139.748;2022-09-17T00:00:14;101523.71;;;32.71;35.69
64115;BME280;62188;35.640;139.748;2022-09-17T00:02:39;101515.77;;;32.86;35.30
64115;BME280;62188;35.640;139.748;2022-09-17T00:05:05;101511.92;;;32.91;35.21
64115;BME280;62188;35.640;139.748;2022-09-17T00:07:30;101510.58;;;33.17;35.02
64115;BME280;62188;35.640;139.748;2022-09-17T00:09:55;101505.01;;;32.99;34.40
64115;BME280;62188;35.640;139.748;2022-09-17T00:12:20;101505.18;;;33.23;34.08
64115;BME280;62188;35.640;139.748;2022-09-17T00:14:45;101506.55;;;33.37;34.48
64115;BME280;62188;35.640;139.748;2022-09-17T00:17:10;101509.62;;;33.35;34.50
64115;BME280;62188;35.640;139.748;2022-09-17T00:19:35;101513.53;;;33.28;33.97
64115;BME280;62188;35.640;139.748;2022-09-17T00:22:00;101514.12;;;33.49;33.91
64115;BME280;62188;35.640;139.748;2022-09-17T00:24:27;101517.13;;;33.51;33.93
64115;BME280;62188;35.640;139.748;2022-09-17T00:26:51;101519.28;;;33.59;33.79
64115;BME280;62188;35.640;139.748;2022-09-17T00:29:16;101517.50;;;33.63;33.15
64115;BME280;62188;35.640;139.748;2022-09-17T00:31:42;101518.58;;;33.61;32.93
64115;BME280;62188;35.640;139.748;2022-09-17T00:34:08;101523.43;;;33.71;32.57
64115;BME280;62188;35.640;139.748;2022-09-17T00:36:35;101520.79;;;33.55;32.66
64115;BME280;62188;35.640;139.748;2022-09-17T00:38:59;101520.28;;;33.58;32.80
64115;BME280;62188;35.640;139.748;2022-09-17T00:41:25;101518.02;;;33.44;32.95
64115;BME280;62188;35.640;139.748;2022-09-17T00:43:51;101512.73;;;33.33;33.12
64115;BME280;62188;35.640;139.748;2022-09-17T00:46:24;101511.32;;;33.07;33.73
64115;BME280;62188;35.640;139.748;2022-09-17T00:48:40;101507.98;;;33.49;33.51
64115;BME280;62188;35.640;139.748;2022-09-17T00:51:06;101507.26;;;33.58;33.74
64115;BME280;62188;35.640;139.748;2022-09-17T00:53:30;101507.27;;;33.58;33.19
64115;BME280;62188;35.640;139.748;2022-09-17T00:56:00;101503.92;;;33.42;33.09
64115;BME280;62188;35.640;139.748;2022-09-17T00:58:22;101497.94;;;33.51;33.50
64115;BME280;62188;35.640;139.748;2022-09-17T01:00:46;101498.84;;;33.71;34.34
64115;BME280;62188;35.640;139.748;2022-09-17T01:03:11;101496.90;;;33.71;33.71
64115;BME280;62188;35.640;139.748;2022-09-17T01:05:43;101494.35;;;34.00;32.87
64115;BME280;62188;35.640;139.748;2022-09-17T01:08:08;101490.20;;;33.85;32.44
64115;BME280;62188;35.640;139.748;2022-09-17T01:10:39;101484.13;;;33.56;32.30
64115;BME280;62188;35.640;139.748;2022-09-17T01:13:05;101480.40;;;33.57;32.64
64115;BME280;62188;35.640;139.748;2022-09-17T01:15:25;101478.58;;;33.63;32.77
64115;BME280;62188;35.640;139.748;2022-09-17T01:17:49;101470.72;;;33.43;32.63
64115;BME280;62188;35.640;139.748;2022-09-17T01:22:41;101464.32;;;33.91;32.03
64115;BME280;62188;35.640;139.748;2022-09-17T01:30:04;101452.82;;;34.27;31.73
64115;BME280;62188;35.640;139.748;2022-09-17T01:32:18;101451.43;;;34.04;31.10
64115;BME280;62188;35.640;139.748;2022-09-17T01:34:48;101449.52;;;34.19;31.10
64115;BME280;62188;35.640;139.748;2022-09-17T01:37:11;101447.22;;;33.77;31.16
64115;BME280;62188;35.640;139.748;2022-09-17T01:39:38;101445.86;;;33.54;31.45
64115;BME280;62188;35.640;139.748;2022-09-17T01:42:03;101443.84;;;34.30;31.41
64115;BME280;62188;35.640;139.748;2022-09-17T01:44:25;101440.69;;;34.37;30.92
64115;BME280;62188;35.640;139.748;2022-09-17T01:46:52;101439.11;;;34.02;30.91
64115;BME280;62188;35.640;139.748;2022-09-17T01:49:15;101435.27;;;34.19;30.79
64115;BME280;62188;35.640;139.748;2022-09-17T01:51:40;101433.34;;;33.74;30.91
64115;BME280;62188;35.640;139.748;2022-09-17T01:54:06;101435.14;;;33.70;31.21
64115;BME280;62188;35.640;139.748;2022-09-17T01:56:34;101435.80;;;33.47;31.12
64115;BME280;62188;35.640;139.748;2022-09-17T01:59:00;101437.23;;;33.74;31.25
64115;BME280;62188;35.640;139.748;2022-09-17T02:01:21;101438.95;;;33.62;31.15
64115;BME280;62188;35.640;139.748;2022-09-17T02:03:48;101441.99;;;33.81;31.64
64115;BME280;62188;35.640;139.748;2022-09-17T02:06:12;101440.59;;;33.91;31.35
64115;BME280;62188;35.640;139.748;2022-09-17T02:08:38;101440.46;;;33.87;31.09
64115;BME280;62188;35.640;139.748;2022-09-17T02:11:04;101436.87;;;33.97;30.97
64115;BME280;62188;35.640;139.748;2022-09-17T02:13:30;101436.41;;;34.09;30.78
64115;BME280;62188;35.640;139.748;2022-09-17T02:15:54;101430.28;;;34.33;30.73
64115;BME280;62188;35.640;139.748;2022-09-17T02:18:23;101432.60;;;34.35;31.11
64115;BME280;62188;35.640;139.748;2022-09-17T02:20:45;101427.57;;;34.69;30.56
64115;BME280;62188;35.640;139.748;2022-09-17T02:23:11;101426.29;;;34.47;30.33
64115;BME280;62188;35.640;139.748;2022-09-17T02:25:35;101433.11;;;34.56;30.42
64115;BME280;62188;35.640;139.748;2022-09-17T02:28:00;101428.75;;;34.83;30.45
64115;BME280;62188;35.640;139.748;2022-09-17T02:30:23;101426.29;;;34.64;30.12
64115;BME280;62188;35.640;139.748;2022-09-17T02:32:48;101424.43;;;34.59;30.28
64115;BME280;62188;35.640;139.748;2022-09-17T02:35:14;101425.14;;;34.90;30.37
64115;BME280;62188;35.640;139.748;2022-09-17T02:37:39;101419.07;;;35.13;30.30
64115;BME280;62188;35.640;139.748;2022-09-17T02:40:05;101418.81;;;35.13;30.52
64115;BME280;62188;35.640;139.748;2022-09-17T02:42:34;101416.14;;;35.23;30.36
64115;BME280;62188;35.640;139.748;2022-09-17T02:45:01;101408.02;;;35.05;30.12
64115;BME280;62188;35.640;139.748;2022-09-17T02:49:59;101407.98;;;35.07;30.10
64115;BME280;62188;35.640;139.748;2022-09-17T02:52:15;101408.29;;;34.84;30.37
64115;BME280;62188;35.640;139.748;2022-09-17T02:54:41;101404.51;;;34.98;30.41
64115;BME280;62188;35.640;139.748;2022-09-17T02:57:10;101407.78;;;34.87;30.55
64115;BME280;62188;35.640;139.748;2022-09-17T02:59:31;101405.59;;;34.58;30.62
64115;BME280;62188;35.640;139.748;2022-09-17T03:01:57;101402.21;;;34.36;30.72
64115;BME280;62188;35.640;139.748;2022-09-17T03:04:18;101406.12;;;34.34;31.22
64115;BME280;62188;35.640;139.748;2022-09-17T03:06:45;101405.99;;;34.50;31.33
64115;BME280;62188;35.640;139.748;2022-09-17T03:09:08;101402.25;;;34.54;31.36
64115;BME280;62188;35.640;139.748;2022-09-17T03:11:33;101403.21;;;33.69;31.85
64115;BME280;62188;35.640;139.748;2022-09-17T03:13:58;101392.72;;;33.62;32.02
64115;BME280;62188;35.640;139.748;2022-09-17T03:16:24;101390.10;;;33.70;32.42
64115;BME280;62188;35.640;139.748;2022-09-17T03:18:49;101387.60;;;33.59;32.47
64115;BME280;62188;35.640;139.748;2022-09-17T03:21:14;101384.58;;;33.60;32.82
64115;BME280;62188;35.640;139.748;2022-09-17T03:23:39;101382.13;;;33.56;32.26
64115;BME280;62188;35.640;139.748;2022-09-17T03:26:05;101383.66;;;33.36;32.64
64115;BME280;62188;35.640;139.748;2022-09-17T03:28:30;101383.02;;;33.50;32.39
64115;BME280;62188;35.640;139.748;2022-09-17T03:30:55;101382.70;;;33.09;32.79
64115;BME280;62188;35.640;139.748;2022-09-17T03:33:21;101381.25;;;32.80;32.62
64115;BME280;62188;35.640;139.748;2022-09-17T03:35:46;101378.61;;;33.10;32.35
64115;BME280;62188;35.640;139.748;2022-09-17T03:38:12;101377.99;;;33.20;32.49
64115;BME280;62188;35.640;139.748;2022-09-17T03:40:37;101375.20;;;33.34;32.57
64115;BME280;62188;35.640;139.748;2022-09-17T03:43:02;101375.61;;;32.97;32.55
64115;BME280;62188;35.640;139.748;2022-09-17T03:45:27;101374.84;;;33.43;32.42
64115;BME280;62188;35.640;139.748;2022-09-17T03:47:52;101369.39;;;33.27;32.60
64115;BME280;62188;35.640;139.748;2022-09-17T03:50:18;101371.37;;;32.97;33.21
64115;BME280;62188;35.640;139.748;2022-09-17T03:52:44;101361.50;;;33.48;32.79
64115;BME280;62188;35.640;139.748;2022-09-17T03:55:09;101357.82;;;33.61;32.74
64115;BME280;62188;35.640;139.748;2022-09-17T03:57:34;101350.78;;;33.98;32.54
64115;BME280;62188;35.640;139.748;2022-09-17T03:59:59;101353.98;;;33.75;32.56
64115;BME280;62188;35.640;139.748;2022-09-17T04:02:24;101350.99;;;33.76;32.29
64115;BME280;62188;35.640;139.748;2022-09-17T04:04:50;101346.60;;;33.85;32.07
64115;BME280;62188;35.640;139.748;2022-09-17T04:07:15;101345.74;;;33.66;31.91
64115;BME280;62188;35.640;139.748;2022-09-17T04:09:40;101347.56;;;33.30;32.20
64115;BME280;62188;35.640;139.748;2022-09-17T04:12:06;101350.52;;;33.47;32.31
64115;BME280;62188;35.640;139.748;2022-09-17T04:14:31;101353.26;;;33.20;32.55
64115;BME280;62188;35.640;139.748;2022-09-17T04:16:58;101351.25;;;33.04;32.39
64115;BME280;62188;35.640;139.748;2022-09-17T04:19:22;101347.89;;;33.00;32.59
64115;BME280;62188;35.640;139.748;2022-09-17T04:21:47;101345.09;;;33.26;32.45
64115;BME280;62188;35.640;139.748;2022-09-17T04:24:12;101343.39;;;33.59;32.51
64115;BME280;62188;35.640;139.748;2022-09-17T04:26:38;101338.95;;;33.12;32.01
64115;BME280;62188;35.640;139.748;2022-09-17T04:29:03;101334.55;;;33.20;32.45
64115;BME280;62188;35.640;139.748;2022-09-17T04:31:28;101334.52;;;32.96;32.20
64115;BME280;62188;35.640;139.748;2022-09-17T04:33:54;101335.50;;;33.04;32.53
64115;BME280;62188;35.640;139.748;2022-09-17T04:36:19;101332.29;;;32.90;32.81
64115;BME280;62188;35.640;139.748;2022-09-17T04:38:47;101329.74;;;32.87;32.36
64115;BME280;62188;35.640;139.748;2022-09-17T04:41:09;101326.39;;;33.09;32.77
64115;BME280;62188;35.640;139.748;2022-09-17T04:43:35;101320.95;;;33.07;32.74
64115;BME280;62188;35.640;139.748;2022-09-17T04:46:00;101319.82;;;32.57;32.25
64115;BME280;62188;35.640;139.748;2022-09-17T04:48:25;101314.44;;;32.78;32.55
64115;BME280;62188;35.640;139.748;2022-09-17T04:50:51;101314.63;;;33.04;32.97
64115;BME280;62188;35.640;139.748;2022-09-17T04:53:16;101309.87;;;32.99;33.21
64115;BME280;62188;35.640;139.748;2022-09-17T04:55:42;101310.31;;;33.03;33.35
64115;BME280;62188;35.640;139.748;2022-09-17T04:58:07;101309.10;;;32.71;33.38
64115;BME280;62188;35.640;139.748;2022-09-17T05:00:32;101303.40;;;32.95;33.62
64115;BME280;62188;35.640;139.748;2022-09-17T05:02:57;101303.06;;;32.70;33.74
64115;BME280;62188;35.640;139.748;2022-09-17T05:05:24;101308.47;;;33.05;34.51
64115;BME280;62188;35.640;139.748;2022-09-17T05:07:48;101311.03;;;32.97;34.61
64115;BME280;62188;35.640;139.748;2022-09-17T05:10:15;101312.05;;;32.59;33.90
64115;BME280;62188;35.640;139.748;2022-09-17T05:12:38;101308.79;;;32.50;33.93
64115;BME280;62188;35.640;139.748;2022-09-17T05:15:06;101305.10;;;32.64;34.31
64115;BME280;62188;35.640;139.748;2022-09-17T05:17:29;101303.64;;;32.51;34.63
64115;BME280;62188;35.640;139.748;2022-09-17T05:19:55;101300.41;;;32.44;34.70
64115;BME280;62188;35.640;139.748;2022-09-17T05:22:20;101297.30;;;32.32;35.37
64115;BME280;62188;35.640;139.748;2022-09-17T05:24:45;101295.21;;;32.43;35.41
64115;BME280;62188;35.640;139.748;2022-09-17T05:27:10;101291.75;;;32.34;35.49
64115;BME280;62188;35.640;139.748;2022-09-17T05:29:35;101291.48;;;32.09;35.51
64115;BME280;62188;35.640;139.748;2022-09-17T05:32:01;101293.46;;;32.01;35.64
64115;BME280;62188;35.640;139.748;2022-09-17T05:34:26;101293.65;;;32.19;35.94
64115;BME280;62188;35.640;139.748;2022-09-17T05:36:51;101291.23;;;32.20;37.06
64115;BME280;62188;35.640;139.748;2022-09-17T05:39:17;101297.62;;;31.93;37.21
64115;BME280;62188;35.640;139.748;2022-09-17T05:41:42;101289.88;;;31.65;37.48
64115;BME280;62188;35.640;139.748;2022-09-17T05:44:07;101290.63;;;32.04;37.75
64115;BME280;62188;35.640;139.748;2022-09-17T05:46:33;101286.45;;;31.72;37.99
64115;BME280;62188;35.640;139.748;2022-09-17T05:48:58;101282.64;;;31.95;37.98
64115;BME280;62188;35.640;139.748;2022-09-17T05:51:24;101279.33;;;31.96;37.64
64115;BME280;62188;35.640;139.748;2022-09-17T05:53:49;101283.09;;;31.58;37.59
64115;BME280;62188;35.640;139.748;2022-09-17T05:56:14;101280.14;;;31.72;37.59
64115;BME280;62188;35.640;139.748;2022-09-17T05:58:40;101275.21;;;31.73;37.50
64115;BME280;62188;35.640;139.748;2022-09-17T06:01:05;101279.94;;;31.47;37.35
64115;BME280;62188;35.640;139.748;2022-09-17T06:03:30;101278.04;;;31.63;37.27
64115;BME280;62188;35.640;139.748;2022-09-17T06:05:57;101283.38;;;31.35;37.44
64115;BME280;62188;35.640;139.748;2022-09-17T06:08:21;101279.83;;;31.63;37.66
64115;BME280;62188;35.640;139.748;2022-09-17T06:10:46;101281.32;;;31.66;37.51
64115;BME280;62188;35.640;139.748;2022-09-17T06:13:11;101282.42;;;31.64;37.60
64115;BME280;62188;35.640;139.748;2022-09-17T06:15:37;101284.22;;;31.59;37.63
64115;BME280;62188;35.640;139.748;2022-09-17T06:18:02;101286.68;;;31.37;37.60
64115;BME280;62188;35.640;139.748;2022-09-17T06:20:27;101290.58;;;31.53;37.26
64115;BME280;62188;35.640;139.748;2022-09-17T06:22:56;101290.24;;;31.40;37.37
64115;BME280;62188;35.640;139.748;2022-09-17T06:25:18;101292.06;;;31.30;37.58
64115;BME280;62188;35.640;139.748;2022-09-17T06:27:43;101294.15;;;31.39;37.47
64115;BME280;62188;35.640;139.748;2022-09-17T06:30:09;101296.43;;;31.36;37.36
64115;BME280;62188;35.640;139.748;2022-09-17T06:32:34;101295.77;;;31.41;37.67
64115;BME280;62188;35.640;139.748;2022-09-17T06:34:59;101297.94;;;31.51;37.42
64115;BME280;62188;35.640;139.748;2022-09-17T06:37:29;101295.83;;;31.58;37.46
64115;BME280;62188;35.640;139.748;2022-09-17T06:39:49;101295.79;;;31.60;37.67
64115;BME280;62188;35.640;139.748;2022-09-17T06:42:15;101294.18;;;31.66;37.84
64115;BME280;62188;35.640;139.748;2022-09-17T06:44:40;101292.95;;;31.60;37.74
64115;BME280;62188;35.640;139.748;2022-09-17T06:47:06;101293.76;;;31.40;37.75
64115;BME280;62188;35.640;139.748;2022-09-17T06:49:31;101299.86;;;31.61;37.78
64115;BME280;62188;35.640;139.748;2022-09-17T06:51:56;101289.68;;;31.60;37.75
64115;BME280;62188;35.640;139.748;2022-09-17T06:54:22;101290.29;;;31.57;37.51
64115;BME280;62188;35.640;139.748;2022-09-17T06:56:47;101293.45;;;31.53;37.54
64115;BME280;62188;35.640;139.748;2022-09-17T06:59:13;101297.12;;;31.54;37.45
64115;BME280;62188;35.640;139.748;2022-09-17T07:01:38;101298.09;;;31.39;37.87
64115;BME280;62188;35.640;139.748;2022-09-17T07:04:03;101298.19;;;31.43;38.02
64115;BME280;62188;35.640;139.748;2022-09-17T07:06:28;101300.40;;;31.42;37.97
64115;BME280;62188;35.640;139.748;2022-09-17T07:08:54;101301.81;;;31.35;37.62
64115;BME280;62188;35.640;139.748;2022-09-17T07:11:20;101298.13;;;31.38;37.63
64115;BME280;62188;35.640;139.748;2022-09-17T07:13:45;101298.44;;;31.47;37.86
64115;BME280;62188;35.640;139.748;2022-09-17T07:16:11;101295.05;;;31.45;37.85
64115;BME280;62188;35.640;139.748;2022-09-17T07:18:35;101291.90;;;31.42;37.65
64115;BME280;62188;35.640;139.748;2022-09-17T07:21:02;101297.56;;;31.08;37.87
64115;BME280;62188;35.640;139.748;2022-09-17T07:23:27;101300.65;;;31.39;38.76
64115;BME280;62188;35.640;139.748;2022-09-17T07:25:53;101300.69;;;31.85;38.95
64115;BME280;62188;35.640;139.748;2022-09-17T07:28:17;101306.35;;;31.33;38.90
64115;BME280;62188;35.640;139.748;2022-09-17T07:30:42;101309.06;;;31.25;38.70
64115;BME280;62188;35.640;139.748;2022-09-17T07:33:07;101304.57;;;31.21;38.81
64115;BME280;62188;35.640;139.748;2022-09-17T07:35:33;101304.07;;;31.20;38.74
64115;BME280;62188;35.640;139.748;2022-09-17T07:37:58;101305.25;;;31.22;38.97
64115;BME280;62188;35.640;139.748;2022-09-17T07:40:23;101305.68;;;31.48;38.96
64115;BME280;62188;35.640;139.748;2022-09-17T07:42:49;101306.23;;;31.50;39.67
64115;BME280;62188;35.640;139.748;2022-09-17T07:45:14;101305.02;;;31.27;39.35
64115;BME280;62188;35.640;139.748;2022-09-17T07:47:40;101310.62;;;31.25;39.72
64115;BME280;62188;35.640;139.748;2022-09-17T07:50:06;101310.33;;;31.34;39.91
64115;BME280;62188;35.640;139.748;2022-09-17T07:52:30;101313.02;;;31.05;40.18
64115;BME280;62188;35.640;139.748;2022-09-17T07:54:55;101311.98;;;31.02;40.28
64115;BME280;62188;35.640;139.748;2022-09-17T07:57:21;101311.91;;;31.05;40.44
64115;BME280;62188;35.640;139.748;2022-09-17T07:59:46;101310.49;;;31.04;40.99
64115;BME280;62188;35.640;139.748;2022-09-17T08:02:13;101305.14;;;30.95;41.42
64115;BME280;62188;35.640;139.748;2022-09-17T08:04:36;101313.14;;;30.92;41.59
64115;BME280;62188;35.640;139.748;2022-09-17T08:07:01;101313.78;;;30.85;42.03
64115;BME280;62188;35.640;139.748;2022-09-17T08:09:27;101314.78;;;30.71;42.29
64115;BME280;62188;35.640;139.748;2022-09-17T08:11:53;101314.65;;;30.68;42.33
64115;BME280;62188;35.640;139.748;2022-09-17T08:14:18;101311.91;;;30.65;42.45
64115;BME280;62188;35.640;139.748;2022-09-17T08:16:43;101315.53;;;30.58;42.57
64115;BME280;62188;35.640;139.748;2022-09-17T08:19:09;101313.34;;;30.75;42.70
64115;BME280;62188;35.640;139.748;2022-09-17T08:21:34;101314.08;;;30.99;42.81
64115;BME280;62188;35.640;139.748;2022-09-17T08:23:59;101311.53;;;31.04;42.75
64115;BME280;62188;35.640;139.748;2022-09-17T08:26:25;101316.29;;;30.59;43.00
64115;BME280;62188;35.640;139.748;2022-09-17T08:28:51;101312.08;;;30.82;43.06
64115;BME280;62188;35.640;139.748;2022-09-17T08:31:17;101310.81;;;30.77;43.21
64115;BME280;62188;35.640;139.748;2022-09-17T08:33:41;101316.75;;;30.96;43.26
64115;BME280;62188;35.640;139.748;2022-09-17T08:36:07;101316.32;;;30.44;43.62
64115;BME280;62188;35.640;139.748;2022-09-17T08:38:33;101315.34;;;30.89;43.52
64115;BME280;62188;35.640;139.748;2022-09-17T08:41:03;101314.80;;;30.87;43.61
64115;BME280;62188;35.640;139.748;2022-09-17T08:43:22;101327.19;;;30.94;43.58
64115;BME280;62188;35.640;139.748;2022-09-17T08:45:52;101325.84;;;30.91;43.60
64115;BME280;62188;35.640;139.748;2022-09-17T08:48:14;101323.02;;;30.90;43.61
64115;BME280;62188;35.640;139.748;2022-09-17T08:50:38;101325.65;;;30.66;43.61
64115;BME280;62188;35.640;139.748;2022-09-17T08:53:13;101327.76;;;30.64;43.52
64115;BME280;62188;35.640;139.748;2022-09-17T08:55:36;101331.23;;;30.32;43.75
64115;BME280;62188;35.640;139.748;2022-09-17T08:58:01;101334.89;;;30.78;43.76
64115;BME280;62188;35.640;139.748;2022-09-17T09:00:21;101329.55;;;30.72;43.96
64115;BME280;62188;35.640;139.748;2022-09-17T09:02:57;101330.58;;;30.73;43.98
64115;BME280;62188;35.640;139.748;2022-09-17T09:05:12;101334.44;;;30.45;44.07
64115;BME280;62188;35.640;139.748;2022-09-17T09:07:39;101333.29;;;30.13;44.09
64115;BME280;62188;35.640;139.748;2022-09-17T09:10:09;101334.26;;;30.33;44.24
64115;BME280;62188;35.640;139.748;2022-09-17T09:12:27;101334.84;;;30.63;44.10
64115;BME280;62188;35.640;139.748;2022-09-17T09:14:55;101339.70;;;30.70;44.00
64115;BME280;62188;35.640;139.748;2022-09-17T09:17:17;101343.51;;;30.76;43.99
64115;BME280;62188;35.640;139.748;2022-09-17T09:19:44;101347.73;;;30.33;43.91
64115;BME280;62188;35.640;139.748;2022-09-17T09:22:17;101351.91;;;30.53;43.90
64115;BME280;62188;35.640;139.748;2022-09-17T09:24:39;101355.11;;;30.25;43.93
64115;BME280;62188;35.640;139.748;2022-09-17T09:27:02;101355.69;;;30.75;43.99
64115;BME280;62188;35.640;139.748;2022-09-17T09:29:31;101357.75;;;30.13;44.10
64115;BME280;62188;35.640;139.748;2022-09-17T09:32:00;101358.22;;;30.59;43.79
64115;BME280;62188;35.640;139.748;2022-09-17T09:34:14;101362.84;;;30.39;43.73
64115;BME280;62188;35.640;139.748;2022-09-17T09:36:39;101368.31;;;30.28;44.22
64115;BME280;62188;35.640;139.748;2022-09-17T09:39:11;101369.20;;;30.55;44.31
64115;BME280;62188;35.640;139.748;2022-09-17T09:41:33;101373.19;;;30.51;44.36
64115;BME280;62188;35.640;139.748;2022-09-17T09:44:01;101371.62;;;30.27;44.64
64115;BME280;62188;35.640;139.748;2022-09-17T09:46:37;101371.64;;;30.50;44.56
64115;BME280;62188;35.640;139.748;2022-09-17T09:48:52;101376.94;;;30.42;44.64
64115;BME280;62188;35.640;139.748;2022-09-17T09:51:18;101378.00;;;30.39;44.69
64115;BME280;62188;35.640;139.748;2022-09-17T09:53:44;101382.72;;;30.41;44.30
64115;BME280;62188;35.640;139.748;2022-09-17T09:56:22;101390.66;;;30.44;44.17
64115;BME280;62188;35.640;139.748;2022-09-17T09:58:34;101394.17;;;30.23;43.72
64115;BME280;62188;35.640;139.748;2022-09-17T10:00:52;101398.19;;;30.46;43.58
64115;BME280;62188;35.640;139.748;2022-09-17T10:03:21;101403.78;;;30.25;43.63
64115;BME280;62188;35.640;139.748;2022-09-17T10:08:13;101403.52;;;30.78;43.48
64115;BME280;62188;35.640;139.748;2022-09-17T10:10:33;101407.24;;;30.62;43.40
64115;BME280;62188;35.640;139.748;2022-09-17T10:13:09;101407.74;;;30.65;43.48
64115;BME280;62188;35.640;139.748;2022-09-17T10:15:26;101412.81;;;30.69;43.56
64115;BME280;62188;35.640;139.748;2022-09-17T10:17:49;101414.78;;;30.73;43.72
64115;BME280;62188;35.640;139.748;2022-09-17T10:20:16;101419.19;;;30.22;43.73
64115;BME280;62188;35.640;139.748;2022-09-17T10:22:41;101423.96;;;30.66;43.73
64115;BME280;62188;35.640;139.748;2022-09-17T10:25:27;101424.20;;;30.58;43.84
64115;BME280;62188;35.640;139.748;2022-09-17T10:27:30;101425.51;;;29.99;44.06
64115;BME280;62188;35.640;139.748;2022-09-17T10:30:02;101427.22;;;30.40;44.09
64115;BME280;62188;35.640;139.748;2022-09-17T10:32:22;101433.54;;;30.29;44.16
64115;BME280;62188;35.640;139.748;2022-09-17T10:34:59;101438.80;;;30.24;44.20
64115;BME280;62188;35.640;139.748;2022-09-17T10:39:37;101440.00;;;30.26;44.27
64115;BME280;62188;35.640;139.748;2022-09-17T10:42:03;101438.03;;;30.27;44.29
64115;BME280;62188;35.640;139.748;2022-09-17T10:44:28;101437.40;;;30.23;44.38
64115;BME280;62188;35.640;139.748;2022-09-17T10:46:52;101432.93;;;30.23;44.61
64115;BME280;62188;35.640;139.748;2022-09-17T10:49:27;101439.39;;;30.13;44.71
64115;BME280;62188;35.640;139.748;2022-09-17T10:51:43;101445.37;;;30.10;44.83
64115;BME280;62188;35.640;139.748;2022-09-17T10:54:23;101452.86;;;30.05;45.11
64115;BME280;62188;35.640;139.748;2022-09-17T10:56:35;101452.91;;;30.06;45.02
64115;BME280;62188;35.640;139.748;2022-09-17T10:59:09;101453.96;;;30.05;44.53
64115;BME280;62188;35.640;139.748;2022-09-17T11:01:33;101460.37;;;29.99;44.58
64115;BME280;62188;35.640;139.748;2022-09-17T11:06:30;101463.57;;;29.92;44.76
64115;BME280;62188;35.640;139.748;2022-09-17T11:08:44;101464.48;;;30.22;44.77
64115;BME280;62188;35.640;139.748;2022-09-17T11:11:10;101468.87;;;30.05;44.54
64115;BME280;62188;35.640;139.748;2022-09-17T11:13:36;101470.78;;;30.14;44.22
64115;BME280;62188;35.640;139.748;2022-09-17T11:16:08;101471.07;;;30.15;43.90
64115;BME280;62188;35.640;139.748;2022-09-17T11:18:33;101471.12;;;30.18;43.60
64115;BME280;62188;35.640;139.748;2022-09-17T11:21:01;101471.28;;;30.19;43.50
64115;BME280;62188;35.640;139.748;2022-09-17T11:23:24;101470.03;;;30.29;43.37
64115;BME280;62188;35.640;139.748;2022-09-17T11:25:44;101466.72;;;30.23;43.48
64115;BME280;62188;35.640;139.748;2022-09-17T11:28:14;101468.46;;;30.29;43.53
64115;BME280;62188;35.640;139.748;2022-09-17T11:30:34;101469.21;;;30.02;43.67
64115;BME280;62188;35.640;139.748;2022-09-17T11:35:22;101468.69;;;29.96;43.89
64115;BME280;62188;35.640;139.748;2022-09-17T11:37:47;101470.65;;;30.23;44.04
64115;BME280;62188;35.640;139.748;2022-09-17T11:40:14;101467.42;;;30.26;44.22
64115;BME280;62188;35.640;139.748;2022-09-17T11:42:41;101472.60;;;30.22;44.28
64115;BME280;62188;35.640;139.748;2022-09-17T11:45:04;101473.96;;;29.87;44.74
64115;BME280;62188;35.640;139.748;2022-09-17T11:47:30;101473.89;;;30.08;45.03
64115;BME280;62188;35.640;139.748;2022-09-17T11:49:53;101477.85;;;29.85;45.27
64115;BME280;62188;35.640;139.748;2022-09-17T11:52:20;101477.12;;;29.95;46.13
64115;BME280;62188;35.640;139.748;2022-09-17T11:54:46;101474.11;;;29.78;46.53
64115;BME280;62188;35.640;139.748;2022-09-17T11:57:11;101473.43;;;29.87;46.43
64115;BME280;62188;35.640;139.748;2022-09-17T11:59:36;101472.80;;;29.92;46.44
64115;BME280;62188;35.640;139.748;2022-09-17T12:02:01;101473.39;;;29.91;46.61
64115;BME280;62188;35.640;139.748;2022-09-17T12:04:40;101468.96;;;29.88;46.54
64115;BME280;62188;35.640;139.748;2022-09-17T12:06:53;101465.00;;;29.77;46.83
64115;BME280;62188;35.640;139.748;2022-09-17T12:09:17;101461.98;;;29.72;46.90
64115;BME280;62188;35.640;139.748;2022-09-17T12:11:44;101460.10;;;29.63;47.09
64115;BME280;62188;35.640;139.748;2022-09-17T12:14:08;101460.87;;;29.69;46.97
64115;BME280;62188;35.640;139.748;2022-09-17T12:16:30;101462.80;;;30.07;46.96
64115;BME280;62188;35.640;139.748;2022-09-17T12:18:59;101463.20;;;29.92;46.90
64115;BME280;62188;35.640;139.748;2022-09-17T12:21:22;101462.66;;;30.12;46.53
64115;BME280;62188;35.640;139.748;2022-09-17T12:23:50;101458.19;;;30.01;46.64
64115;BME280;62188;35.640;139.748;2022-09-17T12:26:22;101461.06;;;29.80;46.35
64115;BME280;62188;35.640;139.748;2022-09-17T12:28:40;101458.66;;;29.97;46.36
64115;BME280;62188;35.640;139.748;2022-09-17T12:31:04;101459.21;;;29.99;46.40
64115;BME280;62188;35.640;139.748;2022-09-17T12:33:29;101452.39;;;30.26;46.33
64115;BME280;62188;35.640;139.748;2022-09-17T12:38:26;101437.12;;;30.10;46.22
64115;BME280;62188;35.640;139.748;2022-09-17T12:40:47;101435.24;;;30.16;46.02